Time;durP1;ratioP1;P1;durP2;ratioP2;P2;SDS_P1;SDS_P2;PMS_P1;PMS_P2;Temp;Humidity;BMP_temperature;BMP_pressure;BME280_temperature;BME280_humidity;BME280_pressure;Samples;Min_cycle;Max_cycle;Signal;HPM_P1;HPM_P2
2022/10/19 00:00:13;;;;;;;13.00;6.60;;;;;;;;;;107115;1304;22042;-80
2022/10/19 00:02:59;;;;;;;14.20;7.60;;;;;;;;;;107130;1304;22171;-80
2022/10/19 00:05:26;;;;;;;11.90;6.00;;;;;;;;;;106972;1307;22711;-80
2022/10/19 00:07:54;;;;;;;14.30;6.80;;;;;;;;;;106954;1306;22773;-79
2022/10/19 00:10:20;;;;;;;12.60;7.50;;;;;;;;;;106981;1291;22056;-79
2022/10/19 00:12:47;;;;;;;12.20;6.20;;;;;;;;;;106959;1306;22091;-79
2022/10/19 00:15:13;;;;;;;15.60;7.90;;;;;;;;;;107106;1303;22073;-78
2022/10/19 00:17:42;;;;;;;16.70;7.60;;;;;;;;;;107029;1307;22287;-79
2022/10/19 00:20:09;;;;;;;13.90;7.00;;;;;;;;;;106996;1297;22029;-80
2022/10/19 00:22:35;;;;;;;13.60;7.50;;;;;;;;;;107025;1306;22110;-79
2022/10/19 00:25:02;;;;;;;13.30;6.20;;;;;;;;;;107002;1305;23212;-79
2022/10/19 00:27:28;;;;;;;13.50;6.90;;;;;;;;;;106961;1306;22112;-79
2022/10/19 00:29:55;;;;;;;14.90;6.60;;;;;;;;;;107066;1290;22044;-79
2022/10/19 00:32:21;;;;;;;14.50;6.80;;;;;;;;;;106941;1306;22101;-78
2022/10/19 00:34:48;;;;;;;13.70;7.10;;;;;;;;;;107355;1282;22490;-78
2022/10/19 00:37:15;;;;;;;12.30;6.50;;;;;;;;;;106937;1306;22006;-78
2022/10/19 00:39:41;;;;;;;15.00;6.60;;;;;;;;;;106948;1306;22722;-79
2022/10/19 00:42:11;;;;;;;13.70;6.30;;;;;;;;;;107083;1307;22083;-78
2022/10/19 00:44:37;;;;;;;14.20;6.90;;;;;;;;;;106942;1306;22068;-78
2022/10/19 00:47:06;;;;;;;13.70;5.90;;;;;;;;;;106992;1307;22184;-79
2022/10/19 00:49:34;;;;;;;12.50;5.80;;;;;;;;;;106983;1305;22056;-78
2022/10/19 00:52:06;;;;;;;15.50;6.20;;;;;;;;;;106921;1306;22073;-79
2022/10/19 00:54:35;;;;;;;14.90;7.30;;;;;;;;;;106992;1305;22079;-79
2022/10/19 00:57:03;;;;;;;14.70;7.00;;;;;;;;;;106996;1306;23185;-78
2022/10/19 00:59:32;;;;;;;17.00;7.60;;;;;;;;;;106982;1306;22611;-78
2022/10/19 01:02:01;;;;;;;15.00;7.20;;;;;;;;;;106983;1306;22083;-78
2022/10/19 01:04:29;;;;;;;15.60;7.40;;;;;;;;;;107274;1296;21952;-78
2022/10/19 01:06:56;;;;;;;13.00;7.50;;;;;;;;;;106914;1307;22557;-78
2022/10/19 01:09:23;;;;;;;13.60;8.10;;;;;;;;;;106961;1307;22160;-78
2022/10/19 01:11:52;;;;;;;17.50;9.00;;;;;;;;;;106946;1307;22774;-78
2022/10/19 01:14:29;;;;;;;18.70;8.70;;;;;;;;;;107050;1305;22144;-78
2022/10/19 01:16:55;;;;;;;15.40;8.50;;;;;;;;;;106937;1306;22689;-78
2022/10/19 01:19:24;;;;;;;16.00;8.60;;;;;;;;;;107058;1304;22077;-78
2022/10/19 01:22:10;;;;;;;17.00;8.80;;;;;;;;;;106973;1292;22089;-78
2022/10/19 01:24:36;;;;;;;16.30;8.80;;;;;;;;;;107041;1305;22101;-78
2022/10/19 01:27:31;;;;;;;15.20;8.40;;;;;;;;;;107041;1304;22083;-78
2022/10/19 01:30:10;;;;;;;16.30;9.10;;;;;;;;;;106912;1302;22589;-78
2022/10/19 01:32:36;;;;;;;16.70;10.00;;;;;;;;;;106961;1307;21958;-79
2022/10/19 01:35:18;;;;;;;18.90;9.30;;;;;;;;;;106961;1304;22091;-79
2022/10/19 01:37:51;;;;;;;18.20;10.30;;;;;;;;;;106935;1307;21951;-79
2022/10/19 01:40:27;;;;;;;17.30;9.50;;;;;;;;;;106945;1304;22056;-78
2022/10/19 01:42:56;;;;;;;14.30;8.90;;;;;;;;;;106916;1307;22662;-78
2022/10/19 01:45:48;;;;;;;18.90;9.70;;;;;;;;;;106933;1307;22889;-78
2022/10/19 01:48:19;;;;;;;17.00;9.80;;;;;;;;;;106778;1307;22112;-78
2022/10/19 01:50:49;;;;;;;20.70;10.40;;;;;;;;;;106972;1307;22808;-78
2022/10/19 01:53:17;;;;;;;18.50;9.00;;;;;;;;;;106938;1307;22080;-78
2022/10/19 01:55:44;;;;;;;16.10;9.30;;;;;;;;;;107254;1298;22020;-78
2022/10/19 01:58:15;;;;;;;17.70;9.60;;;;;;;;;;107015;1299;22068;-78
2022/10/19 02:00:43;;;;;;;18.60;10.70;;;;;;;;;;107044;1307;22060;-78
2022/10/19 02:03:11;;;;;;;17.30;9.70;;;;;;;;;;106944;1298;22038;-78
2022/10/19 02:05:39;;;;;;;17.20;10.00;;;;;;;;;;106933;1306;21669;-78
2022/10/19 02:08:11;;;;;;;17.60;9.00;;;;;;;;;;106932;1299;22103;-78
2022/10/19 02:10:41;;;;;;;17.80;9.50;;;;;;;;;;106874;1300;22088;-78
2022/10/19 02:13:10;;;;;;;19.60;10.00;;;;;;;;;;106876;1307;22083;-79
2022/10/19 02:15:39;;;;;;;18.30;9.90;;;;;;;;;;106930;1307;22115;-78
2022/10/19 02:18:07;;;;;;;16.40;9.40;;;;;;;;;;106749;1307;22068;-78
2022/10/19 02:20:36;;;;;;;21.20;9.40;;;;;;;;;;106863;1306;21967;-78
2022/10/19 02:23:07;;;;;;;19.90;9.40;;;;;;;;;;106891;1305;22095;-78
2022/10/19 02:25:35;;;;;;;18.70;10.40;;;;;;;;;;106883;1307;21948;-78
2022/10/19 02:28:04;;;;;;;16.40;8.00;;;;;;;;;;107007;1307;22874;-79
2022/10/19 02:30:31;;;;;;;19.70;9.90;;;;;;;;;;106896;1297;22063;-78
2022/10/19 02:32:58;;;;;;;17.90;10.00;;;;;;;;;;106986;1307;22041;-78
2022/10/19 02:35:26;;;;;;;20.70;10.40;;;;;;;;;;106873;1307;22064;-78
2022/10/19 02:37:54;;;;;;;20.20;10.10;;;;;;;;;;106891;1307;22039;-78
2022/10/19 02:40:22;;;;;;;19.90;10.40;;;;;;;;;;106815;1307;22062;-78
2022/10/19 02:43:01;;;;;;;18.40;10.90;;;;;;;;;;106900;1309;22178;-78
2022/10/19 02:45:34;;;;;;;19.40;10.30;;;;;;;;;;106952;1299;22262;-78
2022/10/19 02:48:06;;;;;;;19.30;10.20;;;;;;;;;;106755;1310;22083;-78
2022/10/19 02:50:34;;;;;;;15.10;8.50;;;;;;;;;;106912;1307;22268;-80
2022/10/19 02:53:01;;;;;;;17.60;11.00;;;;;;;;;;106983;1306;21928;-78
2022/10/19 02:55:30;;;;;;;20.20;10.30;;;;;;;;;;106927;1307;22096;-79
2022/10/19 02:57:57;;;;;;;19.60;10.20;;;;;;;;;;106876;1307;22087;-79
2022/10/19 03:00:25;;;;;;;21.60;11.20;;;;;;;;;;106925;1307;22088;-79
2022/10/19 03:02:52;;;;;;;19.10;9.80;;;;;;;;;;106890;1302;22049;-78
2022/10/19 03:05:20;;;;;;;17.80;8.90;;;;;;;;;;107089;1284;22724;-80
2022/10/19 03:07:49;;;;;;;21.50;10.80;;;;;;;;;;106766;1307;22136;-80
2022/10/19 03:10:18;;;;;;;18.80;10.30;;;;;;;;;;106879;1299;22673;-78
2022/10/19 03:12:47;;;;;;;16.40;9.30;;;;;;;;;;106911;1306;22076;-79
2022/10/19 03:15:16;;;;;;;20.70;9.90;;;;;;;;;;106768;1305;22637;-79
2022/10/19 03:17:45;;;;;;;19.70;10.30;;;;;;;;;;106734;1307;21934;-79
2022/10/19 03:20:14;;;;;;;21.40;10.40;;;;;;;;;;106788;1307;22038;-79
2022/10/19 03:22:43;;;;;;;18.80;9.50;;;;;;;;;;106801;1308;22156;-79
2022/10/19 03:25:12;;;;;;;18.90;9.40;;;;;;;;;;106911;1307;22087;-79
2022/10/19 03:27:41;;;;;;;16.50;8.70;;;;;;;;;;106792;1307;22063;-78
2022/10/19 03:30:10;;;;;;;16.60;6.70;;;;;;;;;;106906;1311;22058;-79
2022/10/19 03:32:38;;;;;;;16.00;6.60;;;;;;;;;;106920;1307;22078;-79
2022/10/19 03:35:07;;;;;;;21.50;8.80;;;;;;;;;;106789;1301;22758;-78
2022/10/19 03:37:36;;;;;;;14.30;7.60;;;;;;;;;;106919;1307;22744;-78
2022/10/19 03:40:05;;;;;;;15.50;7.50;;;;;;;;;;106905;1307;22063;-79
2022/10/19 03:42:34;;;;;;;18.00;7.30;;;;;;;;;;106713;1301;22035;-78
2022/10/19 03:45:04;;;;;;;17.00;6.80;;;;;;;;;;106774;1307;21686;-79
2022/10/19 03:47:33;;;;;;;16.10;7.30;;;;;;;;;;106902;1307;22853;-78
2022/10/19 03:50:04;;;;;;;11.40;4.90;;;;;;;;;;106911;1308;22099;-80
2022/10/19 03:52:34;;;;;;;13.40;5.70;;;;;;;;;;106801;1301;22116;-80
2022/10/19 03:55:03;;;;;;;17.10;7.40;;;;;;;;;;106881;1298;22116;-80
2022/10/19 03:57:32;;;;;;;12.30;6.20;;;;;;;;;;106908;1307;22100;-80
2022/10/19 04:00:01;;;;;;;17.90;7.40;;;;;;;;;;106906;1311;22577;-81
2022/10/19 04:02:40;;;;;;;16.20;6.90;;;;;;;;;;106921;1307;22063;-81
2022/10/19 04:12:23;;;;;;;13.50;5.60;;;;;;;;;;100286;1342;545422;-81
2022/10/19 04:14:49;;;;;;;14.90;5.70;;;;;;;;;;102752;1316;21982;-86
2022/10/19 04:17:15;;;;;;;13.50;5.00;;;;;;;;;;103298;1307;22476;-88
2022/10/19 04:19:41;;;;;;;11.40;4.60;;;;;;;;;;103317;1307;22565;-82
2022/10/19 04:22:07;;;;;;;13.10;4.30;;;;;;;;;;103323;1307;22471;-88
2022/10/19 04:24:33;;;;;;;14.60;4.50;;;;;;;;;;103326;1307;129817;-84
2022/10/19 04:26:58;;;;;;;11.50;4.60;;;;;;;;;;103464;1307;25248;-81
2022/10/19 04:29:25;;;;;;;11.20;4.10;;;;;;;;;;103805;1300;24642;-83
2022/10/19 04:31:51;;;;;;;13.80;4.50;;;;;;;;;;103836;1300;22477;-84
2022/10/19 04:34:18;;;;;;;11.00;3.20;;;;;;;;;;103996;1300;24289;-86
2022/10/19 04:36:44;;;;;;;12.60;4.40;;;;;;;;;;103974;1301;22490;-79
2022/10/19 04:39:10;;;;;;;10.50;4.00;;;;;;;;;;103714;1299;25383;-82
2022/10/19 04:41:37;;;;;;;9.90;3.90;;;;;;;;;;104006;1300;22504;-81
2022/10/19 04:44:05;;;;;;;10.70;3.60;;;;;;;;;;103906;1300;22662;-81
2022/10/19 04:46:32;;;;;;;11.80;4.00;;;;;;;;;;103977;1303;22492;-80
2022/10/19 04:48:58;;;;;;;9.90;3.50;;;;;;;;;;103939;1296;23836;-82
2022/10/19 04:51:24;;;;;;;10.30;3.20;;;;;;;;;;103826;1301;23177;-85
2022/10/19 04:53:50;;;;;;;11.30;3.30;;;;;;;;;;103966;1301;25203;-82
2022/10/19 04:56:19;;;;;;;10.30;3.30;;;;;;;;;;104039;1300;23489;-85
2022/10/19 04:58:46;;;;;;;14.30;3.40;;;;;;;;;;104062;1300;22476;-80
2022/10/19 05:01:13;;;;;;;14.40;3.80;;;;;;;;;;103972;1300;22467;-79
2022/10/19 05:03:40;;;;;;;12.50;3.80;;;;;;;;;;103878;1300;23335;-83
2022/10/19 05:06:06;;;;;;;10.10;2.80;;;;;;;;;;103816;1295;22465;-86
2022/10/19 05:08:32;;;;;;;9.10;2.70;;;;;;;;;;103781;1303;24321;-82
2022/10/19 05:11:03;;;;;;;9.00;2.90;;;;;;;;;;103608;1298;23064;-79
2022/10/19 05:13:30;;;;;;;11.30;3.30;;;;;;;;;;103581;1303;22512;-80
2022/10/19 05:15:56;;;;;;;10.50;3.90;;;;;;;;;;103574;1298;22818;-86
2022/10/19 05:18:22;;;;;;;10.70;3.10;;;;;;;;;;103651;1281;22464;-82
2022/10/19 05:20:48;;;;;;;12.80;3.50;;;;;;;;;;103643;1288;25212;-81
2022/10/19 05:23:14;;;;;;;8.70;3.20;;;;;;;;;;103838;1280;22501;-84
2022/10/19 05:25:40;;;;;;;11.40;3.40;;;;;;;;;;103551;1282;22851;-81
2022/10/19 05:28:05;;;;;;;14.30;3.60;;;;;;;;;;103668;1288;24185;-85
2022/10/19 05:30:31;;;;;;;11.80;3.00;;;;;;;;;;103691;1303;23870;-80
2022/10/19 05:32:57;;;;;;;11.90;3.00;;;;;;;;;;103536;1304;24974;-82
2022/10/19 05:35:23;;;;;;;12.10;3.00;;;;;;;;;;103894;1279;22459;-83
2022/10/19 05:37:53;;;;;;;11.00;2.90;;;;;;;;;;103781;1303;24288;-83
2022/10/19 05:40:19;;;;;;;14.80;3.40;;;;;;;;;;103567;1303;22592;-80
2022/10/19 05:42:44;;;;;;;7.70;2.30;;;;;;;;;;103691;1303;22463;-84
2022/10/19 05:45:10;;;;;;;10.30;3.20;;;;;;;;;;103742;1298;24322;-80
2022/10/19 05:47:36;;;;;;;10.30;3.30;;;;;;;;;;103777;1303;24536;-85
2022/10/19 05:50:02;;;;;;;10.10;3.40;;;;;;;;;;103731;1304;24465;-81
2022/10/19 05:52:28;;;;;;;9.70;2.80;;;;;;;;;;103843;1303;21691;-80
2022/10/19 05:54:55;;;;;;;11.90;3.10;;;;;;;;;;103849;1302;24308;-79
2022/10/19 05:57:21;;;;;;;10.50;2.80;;;;;;;;;;103647;1297;22446;-81
2022/10/19 05:59:46;;;;;;;12.10;3.20;;;;;;;;;;103936;1303;24265;-81
2022/10/19 06:02:13;;;;;;;13.00;3.30;;;;;;;;;;103819;1298;22469;-84
2022/10/19 06:04:38;;;;;;;15.40;2.80;;;;;;;;;;103751;1304;22479;-79
2022/10/19 06:07:04;;;;;;;9.30;2.80;;;;;;;;;;103875;1303;22447;-83
2022/10/19 06:09:34;;;;;;;11.70;2.40;;;;;;;;;;103716;1303;22463;-85
2022/10/19 06:12:01;;;;;;;10.70;2.60;;;;;;;;;;103942;1274;23576;-86
2022/10/19 06:14:27;;;;;;;9.20;2.70;;;;;;;;;;103716;1291;24237;-87
2022/10/19 06:16:53;;;;;;;13.10;2.90;;;;;;;;;;103699;1303;22466;-87
2022/10/19 06:19:18;;;;;;;9.80;2.20;;;;;;;;;;103958;1303;22457;-83
2022/10/19 06:21:45;;;;;;;10.00;2.30;;;;;;;;;;103856;1297;22505;-83
2022/10/19 06:24:13;;;;;;;13.50;2.30;;;;;;;;;;104028;1303;24302;-88
2022/10/19 06:26:39;;;;;;;12.70;2.80;;;;;;;;;;103965;1289;22644;-89
2022/10/19 06:29:04;;;;;;;9.30;2.30;;;;;;;;;;103981;1297;22451;-87
2022/10/19 06:31:32;;;;;;;12.70;4.50;;;;;;;;;;103877;1297;22669;-84
2022/10/19 06:33:58;;;;;;;11.30;1.90;;;;;;;;;;103703;1303;24272;-82
2022/10/19 06:36:25;;;;;;;10.80;2.00;;;;;;;;;;103549;1303;22583;-81
2022/10/19 06:38:53;;;;;;;10.10;2.10;;;;;;;;;;103526;1298;22524;-77
2022/10/19 06:41:19;;;;;;;15.00;2.60;;;;;;;;;;103527;1303;23872;-81
2022/10/19 06:43:50;;;;;;;8.80;1.80;;;;;;;;;;103568;1300;22458;-81
2022/10/19 06:46:19;;;;;;;19.30;7.60;;;;;;;;;;103758;1303;25313;-82
2022/10/19 06:48:55;;;;;;;11.70;3.10;;;;;;;;;;103915;1302;22484;-86
2022/10/19 06:51:21;;;;;;;23.90;10.00;;;;;;;;;;103711;1304;23073;-84
2022/10/19 06:53:47;;;;;;;12.60;4.70;;;;;;;;;;103555;1303;22467;-79
2022/10/19 06:56:13;;;;;;;9.90;2.30;;;;;;;;;;103506;1303;24419;-84
2022/10/19 06:58:39;;;;;;;12.50;3.60;;;;;;;;;;103748;1303;22484;-79
2022/10/19 07:01:09;;;;;;;10.30;2.10;;;;;;;;;;103479;1303;25714;-84
2022/10/19 07:03:35;;;;;;;14.60;4.20;;;;;;;;;;103707;1303;24305;-79
2022/10/19 07:06:02;;;;;;;12.50;2.10;;;;;;;;;;103566;1303;24713;-80
2022/10/19 07:08:29;;;;;;;17.20;4.50;;;;;;;;;;103698;1304;22498;-83
2022/10/19 07:10:57;;;;;;;10.10;1.50;;;;;;;;;;103579;1303;24070;-83
2022/10/19 07:13:23;;;;;;;8.20;2.80;;;;;;;;;;103701;1303;22478;-84
2022/10/19 07:15:55;;;;;;;8.70;1.70;;;;;;;;;;103733;1303;22454;-85
2022/10/19 07:18:20;;;;;;;7.70;1.50;;;;;;;;;;103724;1303;22472;-81
2022/10/19 07:20:54;;;;;;;8.20;1.40;;;;;;;;;;103671;1303;22460;-86
2022/10/19 07:23:19;;;;;;;8.00;1.50;;;;;;;;;;103458;1303;22466;-86
2022/10/19 07:25:45;;;;;;;6.70;1.40;;;;;;;;;;103561;1303;24349;-81
2022/10/19 07:28:11;;;;;;;6.10;1.80;;;;;;;;;;103725;1297;25269;-79
2022/10/19 07:30:37;;;;;;;5.60;1.10;;;;;;;;;;103734;1303;22457;-84
2022/10/19 07:33:03;;;;;;;7.00;1.40;;;;;;;;;;103702;1303;22587;-82
2022/10/19 07:35:29;;;;;;;5.40;1.00;;;;;;;;;;103568;1300;22582;-82
2022/10/19 07:37:55;;;;;;;7.90;1.90;;;;;;;;;;103561;1291;22484;-85
2022/10/19 07:40:21;;;;;;;7.90;1.50;;;;;;;;;;103757;1304;22470;-81
2022/10/19 07:42:47;;;;;;;6.40;1.30;;;;;;;;;;103600;1303;25342;-83
2022/10/19 07:45:13;;;;;;;9.50;2.00;;;;;;;;;;103714;1303;22706;-79
2022/10/19 07:47:38;;;;;;;9.30;1.90;;;;;;;;;;103675;1303;22532;-82
2022/10/19 07:50:04;;;;;;;7.00;1.50;;;;;;;;;;103836;1303;22459;-82
2022/10/19 07:52:30;;;;;;;7.40;1.30;;;;;;;;;;103548;1303;22457;-81
2022/10/19 07:54:56;;;;;;;7.30;1.20;;;;;;;;;;103566;1303;22569;-81
2022/10/19 07:57:22;;;;;;;7.80;1.40;;;;;;;;;;103908;1303;25247;-82
2022/10/19 07:59:48;;;;;;;7.60;1.40;;;;;;;;;;103805;1303;22470;-80
2022/10/19 08:02:15;;;;;;;10.40;3.40;;;;;;;;;;103612;1301;22460;-81
2022/10/19 08:04:41;;;;;;;9.40;2.30;;;;;;;;;;103661;1303;22580;-80
2022/10/19 08:07:08;;;;;;;10.50;3.10;;;;;;;;;;103617;1298;23181;-81
2022/10/19 08:09:34;;;;;;;11.80;2.40;;;;;;;;;;103945;1303;25320;-81
2022/10/19 08:12:00;;;;;;;6.30;1.30;;;;;;;;;;103911;1303;25290;-80
2022/10/19 08:14:26;;;;;;;7.10;1.30;;;;;;;;;;103708;1306;25335;-79
2022/10/19 08:16:52;;;;;;;5.80;1.30;;;;;;;;;;103826;1304;24398;-80
2022/10/19 08:19:18;;;;;;;4.70;1.10;;;;;;;;;;103591;1304;22528;-83
2022/10/19 08:21:45;;;;;;;7.60;2.10;;;;;;;;;;103688;1304;22462;-79
2022/10/19 08:24:12;;;;;;;7.30;1.80;;;;;;;;;;103882;1303;22462;-84
2022/10/19 08:26:38;;;;;;;9.60;3.00;;;;;;;;;;103716;1303;22471;-84
2022/10/19 08:29:04;;;;;;;6.70;1.50;;;;;;;;;;103762;1303;22472;-80
2022/10/19 08:31:30;;;;;;;9.90;1.70;;;;;;;;;;103770;1303;22470;-80
2022/10/19 08:33:56;;;;;;;6.80;1.70;;;;;;;;;;103557;1303;22478;-84
2022/10/19 08:36:22;;;;;;;4.10;1.10;;;;;;;;;;103536;1290;24417;-81
2022/10/19 08:38:49;;;;;;;8.00;2.60;;;;;;;;;;103695;1303;22452;-85
2022/10/19 08:41:33;;;;;;;4.40;1.30;;;;;;;;;;103691;1304;22469;-85
2022/10/19 08:44:12;;;;;;;6.20;1.30;;;;;;;;;;103896;1303;24278;-84
2022/10/19 08:46:53;;;;;;;8.20;1.40;;;;;;;;;;103802;1303;22466;-78
2022/10/19 08:49:21;;;;;;;5.10;1.20;;;;;;;;;;103665;1303;22586;-80
2022/10/19 08:51:50;;;;;;;8.80;1.80;;;;;;;;;;103766;1303;24414;-81
2022/10/19 08:54:17;;;;;;;6.70;1.50;;;;;;;;;;103714;1303;22458;-87
2022/10/19 08:56:59;;;;;;;7.30;1.50;;;;;;;;;;103870;1303;22459;-82
2022/10/19 09:00:04;;;;;;;8.10;1.50;;;;;;;;;;103891;1303;23870;-82
2022/10/19 09:02:47;;;;;;;8.90;1.50;;;;;;;;;;103192;1304;25344;-80
2022/10/19 09:05:22;;;;;;;6.00;1.50;;;;;;;;;;103028;1312;22516;-80
2022/10/19 09:07:51;;;;;;;12.20;2.90;;;;;;;;;;103040;1310;22498;-80
2022/10/19 09:17:43;;;;;;;8.50;2.30;;;;;;;;;;100387;1339;548088;-85
2022/10/19 09:20:14;;;;;;;12.80;3.90;;;;;;;;;;102721;1316;22596;-80
2022/10/19 09:22:40;;;;;;;14.30;3.00;;;;;;;;;;102553;1316;22470;-84
2022/10/19 09:25:19;;;;;;;9.60;2.60;;;;;;;;;;102616;1316;24224;-82
2022/10/19 09:27:47;;;;;;;9.80;3.00;;;;;;;;;;102908;1316;24359;-80
2022/10/19 09:30:16;;;;;;;72.00;24.80;;;;;;;;;;102714;1313;146996;-81
2022/10/19 09:32:42;;;;;;;13.00;2.70;;;;;;;;;;103055;1311;22473;-84
2022/10/19 09:35:27;;;;;;;9.20;2.10;;;;;;;;;;103027;1313;22465;-82
2022/10/19 09:37:54;;;;;;;14.70;3.80;;;;;;;;;;103014;1313;22497;-82
2022/10/19 09:40:22;;;;;;;8.00;2.50;;;;;;;;;;103013;1313;24369;-84
2022/10/19 09:42:55;;;;;;;12.30;2.30;;;;;;;;;;102980;1313;22419;-80
2022/10/19 09:45:25;;;;;;;12.90;4.00;;;;;;;;;;102915;1313;22475;-85
2022/10/19 09:47:52;;;;;;;30.40;10.50;;;;;;;;;;102983;1313;22540;-80
2022/10/19 09:50:19;;;;;;;42.40;15.50;;;;;;;;;;103595;1307;25330;-82
2022/10/19 09:52:46;;;;;;;20.90;7.50;;;;;;;;;;103607;1307;22467;-81
2022/10/19 09:55:12;;;;;;;37.30;13.10;;;;;;;;;;103538;1307;22475;-83
2022/10/19 09:57:44;;;;;;;9.70;2.90;;;;;;;;;;103462;1307;24301;-81
2022/10/19 10:00:21;;;;;;;15.80;5.40;;;;;;;;;;103490;1307;24537;-83
2022/10/19 10:02:48;;;;;;;13.10;3.90;;;;;;;;;;103458;1298;24374;-80
2022/10/19 10:05:14;;;;;;;7.10;1.40;;;;;;;;;;103331;1307;24128;-80
2022/10/19 10:07:40;;;;;;;6.40;1.90;;;;;;;;;;103461;1307;24762;-79
2022/10/19 10:10:10;;;;;;;8.10;1.70;;;;;;;;;;103680;1304;24218;-81
2022/10/19 10:19:56;;;;;;;5.50;1.50;;;;;;;;;;100469;1339;545449;-83
2022/10/19 10:22:27;;;;;;;5.30;1.20;;;;;;;;;;103825;1303;22455;-81
2022/10/19 10:24:54;;;;;;;5.30;1.30;;;;;;;;;;103502;1304;24561;-80
2022/10/19 10:27:27;;;;;;;4.70;1.00;;;;;;;;;;103658;1303;24315;-80
2022/10/19 10:29:54;;;;;;;10.60;1.30;;;;;;;;;;103620;1306;24195;-80
2022/10/19 10:32:21;;;;;;;4.10;1.20;;;;;;;;;;103511;1304;281225;-80
2022/10/19 10:34:55;;;;;;;6.10;1.20;;;;;;;;;;103945;1302;22451;-80
2022/10/19 10:37:29;;;;;;;6.70;1.10;;;;;;;;;;103895;1303;22467;-81
2022/10/19 10:39:57;;;;;;;6.20;1.40;;;;;;;;;;103850;1303;23876;-80
2022/10/19 10:42:49;;;;;;;5.60;1.30;;;;;;;;;;104016;1281;22585;-84
2022/10/19 10:45:23;;;;;;;5.80;1.20;;;;;;;;;;104153;1286;24238;-80
2022/10/19 10:47:49;;;;;;;7.20;1.20;;;;;;;;;;104088;1279;24212;-80
2022/10/19 10:50:19;;;;;;;6.70;1.30;;;;;;;;;;103497;1286;22465;-83
2022/10/19 10:53:01;;;;;;;4.60;0.90;;;;;;;;;;103680;1303;22517;-85
2022/10/19 10:55:28;;;;;;;5.80;1.10;;;;;;;;;;103647;1282;22576;-81
2022/10/19 10:58:06;;;;;;;2.80;0.70;;;;;;;;;;103806;1289;23996;-83
2022/10/19 11:00:34;;;;;;;2.20;0.60;;;;;;;;;;104077;1275;25349;-83
2022/10/19 11:03:07;;;;;;;4.90;0.70;;;;;;;;;;104157;1278;25320;-82
2022/10/19 11:05:40;;;;;;;8.10;2.10;;;;;;;;;;103847;1284;22533;-84
2022/10/19 11:08:23;;;;;;;7.30;1.60;;;;;;;;;;103959;1288;25312;-80
2022/10/19 11:10:56;;;;;;;9.30;2.20;;;;;;;;;;103610;1278;25396;-80
2022/10/19 11:13:43;;;;;;;6.10;0.90;;;;;;;;;;103902;1284;24659;-81
2022/10/19 11:16:17;;;;;;;10.20;2.60;;;;;;;;;;104054;1284;26473;-81
2022/10/19 11:19:04;;;;;;;11.60;3.40;;;;;;;;;;103779;1288;22462;-81
2022/10/19 11:21:39;;;;;;;9.10;2.00;;;;;;;;;;104001;1287;26793;-80
2022/10/19 11:24:25;;;;;;;12.30;3.40;;;;;;;;;;103913;1289;24280;-87
2022/10/19 11:26:58;;;;;;;9.20;2.20;;;;;;;;;;104076;1288;22487;-84
2022/10/19 11:29:46;;;;;;;20.40;6.50;;;;;;;;;;103711;1289;22500;-81
2022/10/19 11:32:20;;;;;;;6.80;1.60;;;;;;;;;;103686;1288;22489;-80
2022/10/19 11:35:00;;;;;;;8.00;1.80;;;;;;;;;;103531;1278;25649;-83
2022/10/19 11:37:29;;;;;;;7.20;1.90;;;;;;;;;;104125;1279;24242;-79
2022/10/19 11:40:14;;;;;;;21.70;6.70;;;;;;;;;;104042;1278;23850;-80
2022/10/19 11:43:02;;;;;;;13.70;4.90;;;;;;;;;;103670;1304;24564;-78
2022/10/19 11:45:45;;;;;;;6.30;1.30;;;;;;;;;;107082;1299;22084;-79
2022/10/19 11:48:17;;;;;;;12.30;4.00;;;;;;;;;;107077;1306;23105;-80
2022/10/19 11:50:47;;;;;;;3.30;1.10;;;;;;;;;;107168;1303;22886;-80
2022/10/19 11:53:14;;;;;;;5.50;1.10;;;;;;;;;;107084;1303;22140;-80
2022/10/19 11:55:53;;;;;;;5.60;1.10;;;;;;;;;;107184;1303;22238;-80
2022/10/19 11:58:37;;;;;;;8.40;2.40;;;;;;;;;;107111;1303;22186;-79
2022/10/19 12:01:22;;;;;;;5.40;1.00;;;;;;;;;;107076;1293;22068;-79
2022/10/19 12:03:54;;;;;;;3.80;0.80;;;;;;;;;;107087;1305;22026;-80
2022/10/19 12:06:44;;;;;;;4.90;1.20;;;;;;;;;;107242;1303;22051;-79
2022/10/19 12:09:16;;;;;;;5.80;1.10;;;;;;;;;;107158;1303;22116;-81
2022/10/19 12:11:55;;;;;;;4.50;0.80;;;;;;;;;;107157;1304;22086;-80
2022/10/19 12:14:24;;;;;;;4.30;0.70;;;;;;;;;;107098;1304;22777;-81
2022/10/19 12:16:53;;;;;;;2.20;0.60;;;;;;;;;;107257;1302;22063;-79
2022/10/19 12:19:21;;;;;;;6.10;0.80;;;;;;;;;;107084;1304;22087;-80
2022/10/19 12:21:47;;;;;;;6.00;0.90;;;;;;;;;;107353;1288;22041;-79
2022/10/19 12:24:18;;;;;;;3.60;0.80;;;;;;;;;;107161;1304;22092;-80
2022/10/19 12:26:49;;;;;;;5.20;0.60;;;;;;;;;;106978;1302;22064;-80
2022/10/19 12:29:21;;;;;;;3.50;0.70;;;;;;;;;;107059;1306;22319;-80
2022/10/19 12:31:49;;;;;;;4.00;0.80;;;;;;;;;;107254;1299;22073;-79
2022/10/19 12:34:39;;;;;;;7.40;0.80;;;;;;;;;;107151;1301;22788;-80
2022/10/19 12:37:11;;;;;;;6.00;0.80;;;;;;;;;;107091;1307;22045;-78
2022/10/19 12:39:49;;;;;;;5.60;0.90;;;;;;;;;;107171;1304;22067;-80
2022/10/19 12:42:22;;;;;;;3.40;0.90;;;;;;;;;;107236;1303;22884;-80
2022/10/19 12:44:50;;;;;;;3.60;1.00;;;;;;;;;;107244;1303;22142;-79
2022/10/19 12:47:21;;;;;;;5.70;1.20;;;;;;;;;;107152;1307;22713;-78
2022/10/19 12:49:48;;;;;;;4.40;1.10;;;;;;;;;;107071;1307;21938;-79
2022/10/19 12:52:32;;;;;;;6.90;1.20;;;;;;;;;;107251;1300;22076;-79
2022/10/19 12:55:08;;;;;;;7.70;1.10;;;;;;;;;;107129;1304;22038;-79
2022/10/19 12:57:35;;;;;;;5.30;1.20;;;;;;;;;;107267;1292;22116;-79
2022/10/19 13:00:04;;;;;;;4.80;0.70;;;;;;;;;;107250;1304;22065;-79
2022/10/19 13:02:32;;;;;;;6.20;0.90;;;;;;;;;;107148;1304;22150;-78
2022/10/19 13:04:58;;;;;;;5.80;0.80;;;;;;;;;;107134;1303;22090;-80
2022/10/19 13:07:25;;;;;;;3.80;0.70;;;;;;;;;;107165;1304;22082;-78
2022/10/19 13:09:59;;;;;;;5.60;0.80;;;;;;;;;;107140;1304;22182;-78
2022/10/19 13:12:25;;;;;;;4.10;0.80;;;;;;;;;;107107;1304;22099;-78
2022/10/19 13:14:56;;;;;;;16.80;4.50;;;;;;;;;;107108;1296;22083;-78
2022/10/19 13:17:47;;;;;;;32.80;9.50;;;;;;;;;;107130;1301;21962;-79
2022/10/19 13:20:13;;;;;;;9.20;1.60;;;;;;;;;;107139;1296;22635;-80
2022/10/19 13:22:39;;;;;;;6.50;1.20;;;;;;;;;;107157;1304;22076;-80
2022/10/19 13:25:26;;;;;;;6.40;1.10;;;;;;;;;;107134;1303;22070;-80
2022/10/19 13:27:53;;;;;;;4.60;0.80;;;;;;;;;;107123;1304;22111;-78
2022/10/19 13:30:46;;;;;;;6.50;1.40;;;;;;;;;;107112;1304;22058;-79
2022/10/19 13:33:21;;;;;;;14.60;3.20;;;;;;;;;;106924;1304;22639;-79
2022/10/19 13:35:47;;;;;;;20.20;5.30;;;;;;;;;;107196;1304;22134;-78
2022/10/19 13:38:13;;;;;;;25.70;5.50;;;;;;;;;;107126;1304;21947;-79
2022/10/19 13:40:54;;;;;;;11.20;2.70;;;;;;;;;;107172;1304;22734;-78
2022/10/19 13:43:25;;;;;;;14.60;3.20;;;;;;;;;;107018;1305;22722;-79
2022/10/19 13:46:06;;;;;;;12.50;3.30;;;;;;;;;;107195;1303;22092;-79
2022/10/19 13:48:38;;;;;;;15.00;2.90;;;;;;;;;;107121;1303;22080;-79
2022/10/19 13:51:11;;;;;;;14.50;2.80;;;;;;;;;;107158;1301;22074;-79
2022/10/19 13:53:43;;;;;;;8.00;2.10;;;;;;;;;;107006;1304;22064;-79
2022/10/19 13:56:24;;;;;;;24.30;8.30;;;;;;;;;;107042;1306;22392;-79
2022/10/19 13:59:02;;;;;;;11.50;2.20;;;;;;;;;;107145;1302;22095;-79
2022/10/19 14:01:49;;;;;;;7.30;1.60;;;;;;;;;;107128;1302;22157;-79
2022/10/19 14:04:24;;;;;;;5.30;0.90;;;;;;;;;;107001;1298;22094;-78
2022/10/19 14:06:53;;;;;;;5.90;0.90;;;;;;;;;;107148;1303;22544;-79
2022/10/19 14:09:19;;;;;;;5.80;1.00;;;;;;;;;;107108;1295;22054;-78
2022/10/19 14:11:52;;;;;;;8.70;1.40;;;;;;;;;;107151;1303;22141;-80
2022/10/19 14:14:23;;;;;;;8.80;2.00;;;;;;;;;;107103;1303;22493;-80
2022/10/19 14:16:49;;;;;;;7.00;1.90;;;;;;;;;;106968;1306;22111;-79
2022/10/19 14:19:41;;;;;;;8.80;1.90;;;;;;;;;;107137;1303;22126;-79
2022/10/19 14:22:23;;;;;;;8.90;1.70;;;;;;;;;;107117;1303;22074;-79
2022/10/19 14:24:49;;;;;;;8.00;1.90;;;;;;;;;;107070;1303;22125;-80
2022/10/19 14:27:22;;;;;;;9.20;1.90;;;;;;;;;;106976;1304;22355;-80
2022/10/19 14:29:49;;;;;;;8.00;1.90;;;;;;;;;;107100;1303;22071;-80
2022/10/19 14:32:16;;;;;;;6.30;1.90;;;;;;;;;;106987;1304;22063;-80
2022/10/19 14:34:43;;;;;;;7.10;1.90;;;;;;;;;;107068;1304;22667;-80
2022/10/19 14:37:17;;;;;;;10.30;2.70;;;;;;;;;;107108;1304;22748;-80
2022/10/19 14:39:56;;;;;;;7.80;2.10;;;;;;;;;;106953;1304;22076;-80
2022/10/19 14:42:22;;;;;;;8.80;1.80;;;;;;;;;;107112;1303;22088;-80
2022/10/19 14:44:48;;;;;;;6.50;1.50;;;;;;;;;;106938;1307;22099;-80
2022/10/19 14:47:17;;;;;;;4.90;1.00;;;;;;;;;;107089;1304;22060;-80
2022/10/19 14:49:44;;;;;;;8.80;1.10;;;;;;;;;;107101;1304;22294;-80
2022/10/19 14:52:11;;;;;;;4.80;0.80;;;;;;;;;;106996;1304;22037;-81
2022/10/19 14:54:40;;;;;;;4.30;1.40;;;;;;;;;;106930;1299;21956;-79
2022/10/19 14:57:10;;;;;;;16.90;4.90;;;;;;;;;;107006;1304;21944;-79
2022/10/19 14:59:40;;;;;;;10.70;3.00;;;;;;;;;;106934;1304;22865;-79